sensor_id;sensor_type;location;lat;lon;timestamp;P1;durP1;ratioP1;P2;durP2;ratioP2
17151;SDS011;8691;50.828;4.700;2022-12-07T00:00:36;14.10;;;12.07;;
17151;SDS011;8691;50.828;4.700;2022-12-07T00:03:03;16.50;;;12.17;;
17151;SDS011;8691;50.828;4.700;2022-12-07T00:05:30;16.37;;;11.77;;
17151;SDS011;8691;50.828;4.700;2022-12-07T00:07:57;15.37;;;12.07;;
17151;SDS011;8691;50.828;4.700;2022-12-07T00:10:24;14.63;;;11.20;;
17151;SDS011;8691;50.828;4.700;2022-12-07T00:12:51;13.73;;;11.90;;
17151;SDS011;8691;50.828;4.700;2022-12-07T00:15:18;16.43;;;13.00;;
17151;SDS011;8691;50.828;4.700;2022-12-07T00:17:45;16.93;;;12.23;;
17151;SDS011;8691;50.828;4.700;2022-12-07T00:20:12;15.53;;;12.80;;
17151;SDS011;8691;50.828;4.700;2022-12-07T00:22:39;17.70;;;13.07;;
17151;SDS011;8691;50.828;4.700;2022-12-07T00:25:05;18.03;;;13.13;;
17151;SDS011;8691;50.828;4.700;2022-12-07T00:27:32;14.53;;;12.83;;
17151;SDS011;8691;50.828;4.700;2022-12-07T00:29:58;16.43;;;13.20;;
17151;SDS011;8691;50.828;4.700;2022-12-07T00:32:25;16.57;;;13.50;;
17151;SDS011;8691;50.828;4.700;2022-12-07T00:34:52;16.67;;;13.17;;
17151;SDS011;8691;50.828;4.700;2022-12-07T00:37:19;17.23;;;13.67;;
17151;SDS011;8691;50.828;4.700;2022-12-07T00:39:46;17.83;;;13.67;;
17151;SDS011;8691;50.828;4.700;2022-12-07T00:42:13;17.70;;;14.10;;
17151;SDS011;8691;50.828;4.700;2022-12-07T00:44:40;19.10;;;13.67;;
17151;SDS011;8691;50.828;4.700;2022-12-07T00:47:07;19.83;;;14.37;;
17151;SDS011;8691;50.828;4.700;2022-12-07T00:49:34;18.73;;;13.77;;
17151;SDS011;8691;50.828;4.700;2022-12-07T00:52:01;17.70;;;14.27;;
17151;SDS011;8691;50.828;4.700;2022-12-07T00:54:28;17.73;;;14.77;;
17151;SDS011;8691;50.828;4.700;2022-12-07T00:56:55;18.47;;;13.70;;
17151;SDS011;8691;50.828;4.700;2022-12-07T00:59:22;17.80;;;14.03;;
17151;SDS011;8691;50.828;4.700;2022-12-07T01:01:49;18.90;;;14.67;;
17151;SDS011;8691;50.828;4.700;2022-12-07T01:04:16;17.93;;;14.47;;
17151;SDS011;8691;50.828;4.700;2022-12-07T01:06:42;18.00;;;14.67;;
17151;SDS011;8691;50.828;4.700;2022-12-07T01:09:09;18.40;;;14.33;;
17151;SDS011;8691;50.828;4.700;2022-12-07T01:11:36;20.57;;;14.77;;
17151;SDS011;8691;50.828;4.700;2022-12-07T01:14:02;15.10;;;13.27;;
17151;SDS011;8691;50.828;4.700;2022-12-07T01:16:30;25.00;;;22.47;;
17151;SDS011;8691;50.828;4.700;2022-12-07T01:18:57;25.80;;;23.10;;
17151;SDS011;8691;50.828;4.700;2022-12-07T01:21:26;25.87;;;23.23;;
17151;SDS011;8691;50.828;4.700;2022-12-07T01:23:52;25.20;;;22.50;;
17151;SDS011;8691;50.828;4.700;2022-12-07T01:26:22;24.50;;;21.90;;
17151;SDS011;8691;50.828;4.700;2022-12-07T01:28:46;18.87;;;16.60;;
17151;SDS011;8691;50.828;4.700;2022-12-07T01:31:14;18.20;;;15.13;;
17151;SDS011;8691;50.828;4.700;2022-12-07T01:33:39;18.27;;;14.47;;
17151;SDS011;8691;50.828;4.700;2022-12-07T01:36:06;18.90;;;15.03;;
17151;SDS011;8691;50.828;4.700;2022-12-07T01:38:44;16.03;;;13.60;;
17151;SDS011;8691;50.828;4.700;2022-12-07T01:41:10;20.70;;;15.00;;
17151;SDS011;8691;50.828;4.700;2022-12-07T01:44:06;18.77;;;15.23;;
17151;SDS011;8691;50.828;4.700;2022-12-07T01:46:04;17.93;;;14.30;;
17151;SDS011;8691;50.828;4.700;2022-12-07T01:48:32;16.10;;;14.23;;
17151;SDS011;8691;50.828;4.700;2022-12-07T01:50:57;16.27;;;14.43;;
17151;SDS011;8691;50.828;4.700;2022-12-07T01:53:24;16.70;;;14.30;;
17151;SDS011;8691;50.828;4.700;2022-12-07T01:55:50;16.60;;;14.17;;
17151;SDS011;8691;50.828;4.700;2022-12-07T01:58:17;18.40;;;15.50;;
17151;SDS011;8691;50.828;4.700;2022-12-07T02:00:43;17.90;;;15.57;;
17151;SDS011;8691;50.828;4.700;2022-12-07T02:03:15;18.57;;;15.23;;
17151;SDS011;8691;50.828;4.700;2022-12-07T02:05:40;17.23;;;15.30;;
17151;SDS011;8691;50.828;4.700;2022-12-07T02:08:07;17.87;;;15.67;;
17151;SDS011;8691;50.828;4.700;2022-12-07T02:10:33;21.03;;;15.27;;
17151;SDS011;8691;50.828;4.700;2022-12-07T02:13:08;21.43;;;16.37;;
17151;SDS011;8691;50.828;4.700;2022-12-07T02:15:39;28.87;;;25.03;;
17151;SDS011;8691;50.828;4.700;2022-12-07T02:21:00;29.10;;;26.00;;
17151;SDS011;8691;50.828;4.700;2022-12-07T02:31:21;27.60;;;24.65;;
17151;SDS011;8691;50.828;4.700;2022-12-07T02:33:54;20.40;;;17.83;;
17151;SDS011;8691;50.828;4.700;2022-12-07T02:36:39;23.60;;;16.73;;
17151;SDS011;8691;50.828;4.700;2022-12-07T02:41:31;27.92;;;25.00;;
17151;SDS011;8691;50.828;4.700;2022-12-07T02:44:03;27.60;;;24.70;;
17151;SDS011;8691;50.828;4.700;2022-12-07T02:46:33;28.23;;;25.23;;
17151;SDS011;8691;50.828;4.700;2022-12-07T02:48:58;22.03;;;18.80;;
17151;SDS011;8691;50.828;4.700;2022-12-07T02:51:25;20.60;;;17.67;;
17151;SDS011;8691;50.828;4.700;2022-12-07T02:53:51;20.77;;;17.47;;
17151;SDS011;8691;50.828;4.700;2022-12-07T02:59:14;23.80;;;16.77;;
17151;SDS011;8691;50.828;4.700;2022-12-07T03:01:55;20.27;;;17.00;;
17151;SDS011;8691;50.828;4.700;2022-12-07T03:04:18;20.60;;;16.83;;
17151;SDS011;8691;50.828;4.700;2022-12-07T03:06:31;27.65;;;24.73;;
17151;SDS011;8691;50.828;4.700;2022-12-07T03:08:57;24.27;;;18.80;;
17151;SDS011;8691;50.828;4.700;2022-12-07T03:11:28;23.53;;;17.73;;
17151;SDS011;8691;50.828;4.700;2022-12-07T03:14:10;21.00;;;17.37;;
17151;SDS011;8691;50.828;4.700;2022-12-07T03:16:35;21.20;;;17.27;;
17151;SDS011;8691;50.828;4.700;2022-12-07T03:19:05;19.50;;;16.07;;
17151;SDS011;8691;50.828;4.700;2022-12-07T03:21:40;23.40;;;16.90;;
17151;SDS011;8691;50.828;4.700;2022-12-07T03:24:05;18.90;;;16.37;;
17151;SDS011;8691;50.828;4.700;2022-12-07T03:26:31;19.87;;;16.70;;
17151;SDS011;8691;50.828;4.700;2022-12-07T03:28:58;24.63;;;16.97;;
17151;SDS011;8691;50.828;4.700;2022-12-07T03:31:31;21.20;;;16.70;;
17151;SDS011;8691;50.828;4.700;2022-12-07T03:34:01;19.30;;;15.23;;
17151;SDS011;8691;50.828;4.700;2022-12-07T03:36:43;19.77;;;16.00;;
17151;SDS011;8691;50.828;4.700;2022-12-07T03:41:48;22.93;;;17.70;;
17151;SDS011;8691;50.828;4.700;2022-12-07T03:44:16;22.90;;;17.50;;
17151;SDS011;8691;50.828;4.700;2022-12-07T03:46:44;22.27;;;17.07;;
17151;SDS011;8691;50.828;4.700;2022-12-07T03:49:29;18.77;;;15.93;;
17151;SDS011;8691;50.828;4.700;2022-12-07T03:52:02;21.40;;;16.53;;
17151;SDS011;8691;50.828;4.700;2022-12-07T03:54:31;19.67;;;16.10;;
17151;SDS011;8691;50.828;4.700;2022-12-07T03:56:59;19.60;;;16.40;;
17151;SDS011;8691;50.828;4.700;2022-12-07T03:59:26;21.47;;;16.73;;
17151;SDS011;8691;50.828;4.700;2022-12-07T04:01:53;21.80;;;17.33;;
17151;SDS011;8691;50.828;4.700;2022-12-07T04:04:19;24.33;;;17.37;;
17151;SDS011;8691;50.828;4.700;2022-12-07T04:06:45;20.83;;;17.43;;
17151;SDS011;8691;50.828;4.700;2022-12-07T04:09:13;19.20;;;15.67;;
17151;SDS011;8691;50.828;4.700;2022-12-07T04:11:39;18.90;;;15.77;;
17151;SDS011;8691;50.828;4.700;2022-12-07T04:14:07;19.70;;;15.23;;
17151;SDS011;8691;50.828;4.700;2022-12-07T04:16:46;23.00;;;16.17;;
17151;SDS011;8691;50.828;4.700;2022-12-07T04:19:15;29.53;;;25.33;;
17151;SDS011;8691;50.828;4.700;2022-12-07T04:21:42;29.60;;;26.50;;
17151;SDS011;8691;50.828;4.700;2022-12-07T04:24:09;28.17;;;25.33;;
17151;SDS011;8691;50.828;4.700;2022-12-07T04:26:36;27.23;;;24.53;;
17151;SDS011;8691;50.828;4.700;2022-12-07T04:29:02;25.90;;;23.20;;
17151;SDS011;8691;50.828;4.700;2022-12-07T04:31:29;26.70;;;23.87;;
17151;SDS011;8691;50.828;4.700;2022-12-07T04:33:56;25.67;;;23.07;;
17151;SDS011;8691;50.828;4.700;2022-12-07T04:36:23;25.03;;;22.43;;
17151;SDS011;8691;50.828;4.700;2022-12-07T04:38:52;25.63;;;22.80;;
17151;SDS011;8691;50.828;4.700;2022-12-07T04:41:16;26.27;;;23.50;;
17151;SDS011;8691;50.828;4.700;2022-12-07T04:43:43;25.30;;;22.60;;
17151;SDS011;8691;50.828;4.700;2022-12-07T04:46:10;25.20;;;22.60;;
17151;SDS011;8691;50.828;4.700;2022-12-07T04:48:38;24.67;;;22.10;;
17151;SDS011;8691;50.828;4.700;2022-12-07T04:51:05;18.23;;;15.13;;
17151;SDS011;8691;50.828;4.700;2022-12-07T04:53:31;19.33;;;14.20;;
17151;SDS011;8691;50.828;4.700;2022-12-07T04:55:58;16.20;;;13.63;;
17151;SDS011;8691;50.828;4.700;2022-12-07T04:58:25;15.97;;;14.17;;
17151;SDS011;8691;50.828;4.700;2022-12-07T05:00:53;15.07;;;13.23;;
17151;SDS011;8691;50.828;4.700;2022-12-07T05:03:18;14.47;;;12.93;;
17151;SDS011;8691;50.828;4.700;2022-12-07T05:05:46;16.10;;;13.43;;
17151;SDS011;8691;50.828;4.700;2022-12-07T05:08:12;16.30;;;13.47;;
17151;SDS011;8691;50.828;4.700;2022-12-07T05:10:39;16.23;;;14.53;;
17151;SDS011;8691;50.828;4.700;2022-12-07T05:13:06;18.70;;;13.83;;
17151;SDS011;8691;50.828;4.700;2022-12-07T05:15:32;15.47;;;13.07;;
17151;SDS011;8691;50.828;4.700;2022-12-07T05:17:59;15.20;;;13.17;;
17151;SDS011;8691;50.828;4.700;2022-12-07T05:20:26;17.27;;;13.70;;
17151;SDS011;8691;50.828;4.700;2022-12-07T05:22:53;17.00;;;13.53;;
17151;SDS011;8691;50.828;4.700;2022-12-07T05:25:19;21.33;;;13.57;;
17151;SDS011;8691;50.828;4.700;2022-12-07T05:27:47;17.00;;;12.97;;
17151;SDS011;8691;50.828;4.700;2022-12-07T05:30:14;26.05;;;22.75;;
17151;SDS011;8691;50.828;4.700;2022-12-07T05:32:40;21.80;;;16.00;;
17151;SDS011;8691;50.828;4.700;2022-12-07T05:35:07;18.00;;;14.63;;
17151;SDS011;8691;50.828;4.700;2022-12-07T05:37:34;16.40;;;14.10;;
17151;SDS011;8691;50.828;4.700;2022-12-07T05:40:00;17.10;;;13.40;;
17151;SDS011;8691;50.828;4.700;2022-12-07T05:42:27;17.00;;;13.53;;
17151;SDS011;8691;50.828;4.700;2022-12-07T05:44:53;16.77;;;13.60;;
17151;SDS011;8691;50.828;4.700;2022-12-07T05:47:20;19.50;;;14.83;;
17151;SDS011;8691;50.828;4.700;2022-12-07T05:49:47;17.37;;;13.43;;
17151;SDS011;8691;50.828;4.700;2022-12-07T05:52:13;19.30;;;13.57;;
17151;SDS011;8691;50.828;4.700;2022-12-07T05:54:41;17.97;;;13.77;;
17151;SDS011;8691;50.828;4.700;2022-12-07T05:57:07;16.70;;;13.13;;
17151;SDS011;8691;50.828;4.700;2022-12-07T05:59:35;16.17;;;13.40;;
17151;SDS011;8691;50.828;4.700;2022-12-07T06:02:05;16.97;;;13.43;;
17151;SDS011;8691;50.828;4.700;2022-12-07T06:04:32;15.27;;;12.67;;
17151;SDS011;8691;50.828;4.700;2022-12-07T06:06:57;17.53;;;12.73;;
17151;SDS011;8691;50.828;4.700;2022-12-07T06:09:24;16.83;;;12.83;;
17151;SDS011;8691;50.828;4.700;2022-12-07T06:11:50;16.30;;;12.40;;
17151;SDS011;8691;50.828;4.700;2022-12-07T06:14:35;15.40;;;13.30;;
17151;SDS011;8691;50.828;4.700;2022-12-07T06:17:02;15.87;;;13.03;;
17151;SDS011;8691;50.828;4.700;2022-12-07T06:19:28;15.03;;;12.60;;
17151;SDS011;8691;50.828;4.700;2022-12-07T06:21:55;16.57;;;12.73;;
17151;SDS011;8691;50.828;4.700;2022-12-07T06:24:22;16.80;;;13.03;;
17151;SDS011;8691;50.828;4.700;2022-12-07T06:26:48;19.27;;;13.83;;
17151;SDS011;8691;50.828;4.700;2022-12-07T06:29:16;14.73;;;13.03;;
17151;SDS011;8691;50.828;4.700;2022-12-07T06:31:41;19.43;;;13.00;;
17151;SDS011;8691;50.828;4.700;2022-12-07T06:34:10;16.57;;;13.43;;
17151;SDS011;8691;50.828;4.700;2022-12-07T06:36:35;19.97;;;13.57;;
17151;SDS011;8691;50.828;4.700;2022-12-07T06:39:02;16.40;;;12.97;;
17151;SDS011;8691;50.828;4.700;2022-12-07T06:41:29;17.23;;;12.23;;
17151;SDS011;8691;50.828;4.700;2022-12-07T06:43:56;24.85;;;21.90;;
17151;SDS011;8691;50.828;4.700;2022-12-07T06:46:22;25.73;;;23.13;;
17151;SDS011;8691;50.828;4.700;2022-12-07T06:48:50;24.43;;;21.80;;
17151;SDS011;8691;50.828;4.700;2022-12-07T06:51:17;17.73;;;15.93;;
17151;SDS011;8691;50.828;4.700;2022-12-07T06:53:44;17.47;;;14.67;;
17151;SDS011;8691;50.828;4.700;2022-12-07T06:56:11;15.60;;;13.53;;
17151;SDS011;8691;50.828;4.700;2022-12-07T06:58:38;19.83;;;15.17;;
17151;SDS011;8691;50.828;4.700;2022-12-07T07:01:11;17.17;;;14.60;;
17151;SDS011;8691;50.828;4.700;2022-12-07T07:03:38;17.10;;;14.23;;
17151;SDS011;8691;50.828;4.700;2022-12-07T07:06:05;18.97;;;14.00;;
17151;SDS011;8691;50.828;4.700;2022-12-07T07:08:31;16.47;;;13.57;;
17151;SDS011;8691;50.828;4.700;2022-12-07T07:10:58;16.77;;;13.50;;
17151;SDS011;8691;50.828;4.700;2022-12-07T07:13:24;17.00;;;13.40;;
17151;SDS011;8691;50.828;4.700;2022-12-07T07:15:52;15.33;;;13.17;;
17151;SDS011;8691;50.828;4.700;2022-12-07T07:18:18;15.43;;;13.10;;
17151;SDS011;8691;50.828;4.700;2022-12-07T07:20:46;17.77;;;13.50;;
17151;SDS011;8691;50.828;4.700;2022-12-07T07:23:12;16.40;;;13.17;;
17151;SDS011;8691;50.828;4.700;2022-12-07T07:25:39;18.10;;;14.03;;
17151;SDS011;8691;50.828;4.700;2022-12-07T07:28:05;15.80;;;13.50;;
17151;SDS011;8691;50.828;4.700;2022-12-07T07:30:32;16.07;;;12.97;;
17151;SDS011;8691;50.828;4.700;2022-12-07T07:32:59;21.23;;;14.70;;
17151;SDS011;8691;50.828;4.700;2022-12-07T07:35:27;17.10;;;13.60;;
17151;SDS011;8691;50.828;4.700;2022-12-07T07:37:53;15.73;;;13.73;;
17151;SDS011;8691;50.828;4.700;2022-12-07T07:40:20;14.70;;;13.17;;
17151;SDS011;8691;50.828;4.700;2022-12-07T07:42:50;15.90;;;12.90;;
17151;SDS011;8691;50.828;4.700;2022-12-07T07:45:16;15.30;;;12.97;;
17151;SDS011;8691;50.828;4.700;2022-12-07T07:47:43;20.03;;;18.10;;
17151;SDS011;8691;50.828;4.700;2022-12-07T07:50:11;20.48;;;18.27;;
17151;SDS011;8691;50.828;4.700;2022-12-07T07:52:37;15.90;;;14.20;;
17151;SDS011;8691;50.828;4.700;2022-12-07T07:55:04;13.67;;;11.93;;
17151;SDS011;8691;50.828;4.700;2022-12-07T07:57:31;15.53;;;13.13;;
17151;SDS011;8691;50.828;4.700;2022-12-07T07:59:58;13.30;;;11.40;;
17151;SDS011;8691;50.828;4.700;2022-12-07T08:02:25;15.17;;;12.40;;
17151;SDS011;8691;50.828;4.700;2022-12-07T08:04:52;13.53;;;11.80;;
17151;SDS011;8691;50.828;4.700;2022-12-07T08:07:19;18.40;;;12.37;;
17151;SDS011;8691;50.828;4.700;2022-12-07T08:09:46;15.40;;;11.97;;
17151;SDS011;8691;50.828;4.700;2022-12-07T08:12:13;14.53;;;12.83;;
17151;SDS011;8691;50.828;4.700;2022-12-07T08:14:40;16.03;;;12.83;;
17151;SDS011;8691;50.828;4.700;2022-12-07T08:17:07;27.43;;;20.43;;
17151;SDS011;8691;50.828;4.700;2022-12-07T08:19:34;40.27;;;27.07;;
17151;SDS011;8691;50.828;4.700;2022-12-07T08:22:01;28.30;;;22.83;;
17151;SDS011;8691;50.828;4.700;2022-12-07T08:24:28;17.43;;;13.03;;
17151;SDS011;8691;50.828;4.700;2022-12-07T08:26:55;17.70;;;12.83;;
17151;SDS011;8691;50.828;4.700;2022-12-07T08:29:21;16.47;;;12.83;;
17151;SDS011;8691;50.828;4.700;2022-12-07T08:31:49;14.90;;;13.23;;
17151;SDS011;8691;50.828;4.700;2022-12-07T08:34:15;15.43;;;11.80;;
17151;SDS011;8691;50.828;4.700;2022-12-07T08:36:42;14.10;;;11.93;;
17151;SDS011;8691;50.828;4.700;2022-12-07T08:39:09;15.10;;;12.17;;
17151;SDS011;8691;50.828;4.700;2022-12-07T08:41:35;16.73;;;12.83;;
17151;SDS011;8691;50.828;4.700;2022-12-07T08:44:02;16.77;;;13.93;;
17151;SDS011;8691;50.828;4.700;2022-12-07T08:46:34;17.87;;;13.43;;
17151;SDS011;8691;50.828;4.700;2022-12-07T08:49:09;15.73;;;13.57;;
17151;SDS011;8691;50.828;4.700;2022-12-07T08:51:35;19.37;;;14.63;;
17151;SDS011;8691;50.828;4.700;2022-12-07T08:54:03;17.87;;;15.63;;
17151;SDS011;8691;50.828;4.700;2022-12-07T08:56:28;19.87;;;17.23;;
17151;SDS011;8691;50.828;4.700;2022-12-07T08:58:55;24.12;;;19.33;;
17151;SDS011;8691;50.828;4.700;2022-12-07T09:01:21;17.17;;;14.50;;
17151;SDS011;8691;50.828;4.700;2022-12-07T09:03:48;16.77;;;12.13;;
17151;SDS011;8691;50.828;4.700;2022-12-07T09:06:15;11.27;;;10.17;;
17151;SDS011;8691;50.828;4.700;2022-12-07T09:08:44;10.57;;;8.85;;
17151;SDS011;8691;50.828;4.700;2022-12-07T09:11:09;9.87;;;7.93;;
17151;SDS011;8691;50.828;4.700;2022-12-07T09:13:36;9.67;;;8.60;;
17151;SDS011;8691;50.828;4.700;2022-12-07T09:16:02;10.47;;;7.00;;
17151;SDS011;8691;50.828;4.700;2022-12-07T09:18:29;11.00;;;6.63;;
17151;SDS011;8691;50.828;4.700;2022-12-07T09:20:56;7.73;;;6.93;;
17151;SDS011;8691;50.828;4.700;2022-12-07T09:23:22;8.13;;;7.03;;
17151;SDS011;8691;50.828;4.700;2022-12-07T09:25:49;9.13;;;7.50;;
17151;SDS011;8691;50.828;4.700;2022-12-07T09:28:17;10.85;;;8.65;;
17151;SDS011;8691;50.828;4.700;2022-12-07T09:30:47;9.10;;;7.53;;
17151;SDS011;8691;50.828;4.700;2022-12-07T09:33:13;9.87;;;7.00;;
17151;SDS011;8691;50.828;4.700;2022-12-07T09:35:49;7.67;;;6.60;;
17151;SDS011;8691;50.828;4.700;2022-12-07T09:38:16;26.87;;;22.53;;
17151;SDS011;8691;50.828;4.700;2022-12-07T09:40:42;11.93;;;9.23;;
17151;SDS011;8691;50.828;4.700;2022-12-07T09:43:16;8.97;;;8.07;;
17151;SDS011;8691;50.828;4.700;2022-12-07T09:45:42;11.27;;;7.20;;
17151;SDS011;8691;50.828;4.700;2022-12-07T09:48:16;10.10;;;7.77;;
17151;SDS011;8691;50.828;4.700;2022-12-07T09:50:44;9.47;;;7.50;;
17151;SDS011;8691;50.828;4.700;2022-12-07T09:53:27;12.95;;;10.68;;
17151;SDS011;8691;50.828;4.700;2022-12-07T09:55:49;11.67;;;10.47;;
17151;SDS011;8691;50.828;4.700;2022-12-07T09:58:20;13.85;;;10.45;;
17151;SDS011;8691;50.828;4.700;2022-12-07T10:00:46;10.83;;;7.80;;
17151;SDS011;8691;50.828;4.700;2022-12-07T10:03:12;9.07;;;7.87;;
17151;SDS011;8691;50.828;4.700;2022-12-07T10:05:43;10.00;;;7.70;;
17151;SDS011;8691;50.828;4.700;2022-12-07T10:08:10;9.87;;;7.57;;
17151;SDS011;8691;50.828;4.700;2022-12-07T10:10:35;11.47;;;7.20;;
17151;SDS011;8691;50.828;4.700;2022-12-07T10:13:03;9.10;;;6.80;;
17151;SDS011;8691;50.828;4.700;2022-12-07T10:15:41;8.93;;;6.70;;
17151;SDS011;8691;50.828;4.700;2022-12-07T10:18:16;9.20;;;6.50;;
17151;SDS011;8691;50.828;4.700;2022-12-07T10:20:33;8.13;;;6.37;;
17151;SDS011;8691;50.828;4.700;2022-12-07T10:23:04;10.83;;;7.33;;
17151;SDS011;8691;50.828;4.700;2022-12-07T10:25:34;9.70;;;6.63;;
17151;SDS011;8691;50.828;4.700;2022-12-07T10:28:16;9.47;;;5.93;;
17151;SDS011;8691;50.828;4.700;2022-12-07T10:30:55;8.30;;;5.33;;
17151;SDS011;8691;50.828;4.700;2022-12-07T10:33:31;7.40;;;5.70;;
17151;SDS011;8691;50.828;4.700;2022-12-07T10:35:56;7.30;;;5.43;;
17151;SDS011;8691;50.828;4.700;2022-12-07T10:38:22;9.70;;;6.00;;
17151;SDS011;8691;50.828;4.700;2022-12-07T10:40:50;8.67;;;5.03;;
17151;SDS011;8691;50.828;4.700;2022-12-07T10:43:18;7.70;;;5.17;;
17151;SDS011;8691;50.828;4.700;2022-12-07T10:48:39;8.13;;;5.43;;
17151;SDS011;8691;50.828;4.700;2022-12-07T10:51:06;6.33;;;4.93;;
17151;SDS011;8691;50.828;4.700;2022-12-07T10:53:42;7.23;;;4.67;;
17151;SDS011;8691;50.828;4.700;2022-12-07T10:56:28;8.40;;;5.07;;
17151;SDS011;8691;50.828;4.700;2022-12-07T10:59:20;8.77;;;5.07;;
17151;SDS011;8691;50.828;4.700;2022-12-07T11:04:58;8.77;;;5.37;;
17151;SDS011;8691;50.828;4.700;2022-12-07T11:07:43;7.50;;;5.13;;
17151;SDS011;8691;50.828;4.700;2022-12-07T11:10:13;6.53;;;5.20;;
17151;SDS011;8691;50.828;4.700;2022-12-07T11:24:12;7.17;;;5.47;;
17151;SDS011;8691;50.828;4.700;2022-12-07T11:32:15;8.97;;;5.67;;
17151;SDS011;8691;50.828;4.700;2022-12-07T11:34:53;10.38;;;6.40;;
17151;SDS011;8691;50.828;4.700;2022-12-07T11:37:24;9.90;;;6.27;;
17151;SDS011;8691;50.828;4.700;2022-12-07T11:39:50;9.27;;;6.60;;
17151;SDS011;8691;50.828;4.700;2022-12-07T11:42:19;10.87;;;6.40;;
17151;SDS011;8691;50.828;4.700;2022-12-07T11:50:05;10.43;;;4.90;;
17151;SDS011;8691;50.828;4.700;2022-12-07T11:52:53;7.33;;;4.63;;
17151;SDS011;8691;50.828;4.700;2022-12-07T11:55:26;7.80;;;4.50;;
17151;SDS011;8691;50.828;4.700;2022-12-07T11:57:53;7.13;;;4.50;;
17151;SDS011;8691;50.828;4.700;2022-12-07T12:00:19;8.80;;;5.95;;
17151;SDS011;8691;50.828;4.700;2022-12-07T12:02:55;6.47;;;4.50;;
17151;SDS011;8691;50.828;4.700;2022-12-07T12:05:25;6.30;;;4.83;;
17151;SDS011;8691;50.828;4.700;2022-12-07T12:07:54;7.27;;;4.50;;
17151;SDS011;8691;50.828;4.700;2022-12-07T12:10:26;8.80;;;4.80;;
17151;SDS011;8691;50.828;4.700;2022-12-07T12:13:05;8.98;;;5.82;;
17151;SDS011;8691;50.828;4.700;2022-12-07T12:23:19;8.43;;;4.37;;
17151;SDS011;8691;50.828;4.700;2022-12-07T12:25:46;6.80;;;4.57;;
17151;SDS011;8691;50.828;4.700;2022-12-07T12:28:18;11.80;;;4.60;;
17151;SDS011;8691;50.828;4.700;2022-12-07T12:30:44;8.13;;;4.10;;
17151;SDS011;8691;50.828;4.700;2022-12-07T12:33:22;8.67;;;4.37;;
17151;SDS011;8691;50.828;4.700;2022-12-07T12:35:46;6.87;;;3.73;;
17151;SDS011;8691;50.828;4.700;2022-12-07T12:41:01;9.07;;;4.17;;
17151;SDS011;8691;50.828;4.700;2022-12-07T12:43:41;6.23;;;3.60;;
17151;SDS011;8691;50.828;4.700;2022-12-07T12:57:05;7.73;;;4.20;;
17151;SDS011;8691;50.828;4.700;2022-12-07T12:59:25;7.70;;;4.27;;
17151;SDS011;8691;50.828;4.700;2022-12-07T13:01:50;6.63;;;3.90;;
17151;SDS011;8691;50.828;4.700;2022-12-07T13:04:27;7.37;;;3.50;;
17151;SDS011;8691;50.828;4.700;2022-12-07T13:07:11;7.30;;;3.60;;
17151;SDS011;8691;50.828;4.700;2022-12-07T13:09:37;5.30;;;3.37;;
17151;SDS011;8691;50.828;4.700;2022-12-07T13:12:05;4.87;;;3.50;;
17151;SDS011;8691;50.828;4.700;2022-12-07T13:17:04;5.17;;;3.30;;
17151;SDS011;8691;50.828;4.700;2022-12-07T13:24:58;5.27;;;3.47;;
17151;SDS011;8691;50.828;4.700;2022-12-07T13:27:43;5.00;;;3.30;;
17151;SDS011;8691;50.828;4.700;2022-12-07T13:30:17;7.33;;;3.23;;
17151;SDS011;8691;50.828;4.700;2022-12-07T13:32:42;6.73;;;3.17;;
17151;SDS011;8691;50.828;4.700;2022-12-07T13:35:32;4.80;;;2.90;;
17151;SDS011;8691;50.828;4.700;2022-12-07T13:37:54;4.13;;;3.00;;
17151;SDS011;8691;50.828;4.700;2022-12-07T13:40:23;5.53;;;3.10;;
17151;SDS011;8691;50.828;4.700;2022-12-07T13:42:59;6.03;;;3.67;;
17151;SDS011;8691;50.828;4.700;2022-12-07T13:45:26;7.12;;;3.60;;
17151;SDS011;8691;50.828;4.700;2022-12-07T13:51:20;7.90;;;3.43;;
17151;SDS011;8691;50.828;4.700;2022-12-07T13:53:47;5.60;;;2.70;;
17151;SDS011;8691;50.828;4.700;2022-12-07T13:56:12;4.93;;;2.53;;
17151;SDS011;8691;50.828;4.700;2022-12-07T13:58:39;6.10;;;3.10;;
17151;SDS011;8691;50.828;4.700;2022-12-07T14:01:06;4.73;;;2.90;;
17151;SDS011;8691;50.828;4.700;2022-12-07T14:03:33;6.20;;;2.57;;
17151;SDS011;8691;50.828;4.700;2022-12-07T14:06:06;6.53;;;2.63;;
17151;SDS011;8691;50.828;4.700;2022-12-07T14:08:29;5.23;;;3.17;;
17151;SDS011;8691;50.828;4.700;2022-12-07T14:10:56;4.57;;;2.97;;
17151;SDS011;8691;50.828;4.700;2022-12-07T14:13:33;4.30;;;3.17;;
17151;SDS011;8691;50.828;4.700;2022-12-07T14:15:58;4.37;;;3.00;;
17151;SDS011;8691;50.828;4.700;2022-12-07T14:21:14;7.63;;;2.63;;
17151;SDS011;8691;50.828;4.700;2022-12-07T14:23:32;4.77;;;2.50;;
17151;SDS011;8691;50.828;4.700;2022-12-07T14:26:21;5.47;;;2.87;;
17151;SDS011;8691;50.828;4.700;2022-12-07T14:28:45;4.70;;;3.30;;
17151;SDS011;8691;50.828;4.700;2022-12-07T14:31:13;8.33;;;3.20;;
17151;SDS011;8691;50.828;4.700;2022-12-07T14:33:39;4.00;;;2.67;;
17151;SDS011;8691;50.828;4.700;2022-12-07T14:36:08;5.27;;;2.90;;
17151;SDS011;8691;50.828;4.700;2022-12-07T14:38:32;5.77;;;2.87;;
17151;SDS011;8691;50.828;4.700;2022-12-07T14:40:59;6.80;;;2.70;;
17151;SDS011;8691;50.828;4.700;2022-12-07T14:43:26;8.63;;;3.33;;
17151;SDS011;8691;50.828;4.700;2022-12-07T14:45:53;5.30;;;3.70;;
17151;SDS011;8691;50.828;4.700;2022-12-07T14:48:19;6.33;;;3.23;;
17151;SDS011;8691;50.828;4.700;2022-12-07T14:50:50;4.50;;;3.30;;
17151;SDS011;8691;50.828;4.700;2022-12-07T14:53:17;3.60;;;2.90;;
17151;SDS011;8691;50.828;4.700;2022-12-07T14:55:43;4.57;;;2.93;;
17151;SDS011;8691;50.828;4.700;2022-12-07T14:58:15;4.20;;;2.87;;
17151;SDS011;8691;50.828;4.700;2022-12-07T15:00:42;2.67;;;2.43;;
17151;SDS011;8691;50.828;4.700;2022-12-07T15:03:09;3.40;;;2.80;;
17151;SDS011;8691;50.828;4.700;2022-12-07T15:05:36;4.13;;;2.47;;
17151;SDS011;8691;50.828;4.700;2022-12-07T15:08:03;3.20;;;2.30;;
17151;SDS011;8691;50.828;4.700;2022-12-07T15:10:30;2.60;;;2.40;;
17151;SDS011;8691;50.828;4.700;2022-12-07T15:13:00;2.57;;;2.30;;
17151;SDS011;8691;50.828;4.700;2022-12-07T15:15:26;3.97;;;2.50;;
17151;SDS011;8691;50.828;4.700;2022-12-07T16:39:28;6.72;;;6.00;;
17151;SDS011;8691;50.828;4.700;2022-12-07T16:41:54;5.53;;;5.03;;
17151;SDS011;8691;50.828;4.700;2022-12-07T16:44:21;7.43;;;5.00;;
17151;SDS011;8691;50.828;4.700;2022-12-07T16:46:48;6.10;;;5.50;;
17151;SDS011;8691;50.828;4.700;2022-12-07T16:49:15;8.03;;;4.93;;
17151;SDS011;8691;50.828;4.700;2022-12-07T16:51:42;6.00;;;5.23;;
17151;SDS011;8691;50.828;4.700;2022-12-07T16:54:10;7.70;;;5.90;;
17151;SDS011;8691;50.828;4.700;2022-12-07T16:56:36;7.23;;;5.93;;
17151;SDS011;8691;50.828;4.700;2022-12-07T16:59:02;8.80;;;6.60;;
17151;SDS011;8691;50.828;4.700;2022-12-07T17:01:29;7.33;;;5.90;;
17151;SDS011;8691;50.828;4.700;2022-12-07T17:03:56;9.90;;;6.20;;
17151;SDS011;8691;50.828;4.700;2022-12-07T17:06:23;9.00;;;6.70;;
17151;SDS011;8691;50.828;4.700;2022-12-07T17:08:50;10.57;;;6.17;;
17151;SDS011;8691;50.828;4.700;2022-12-07T17:11:18;7.97;;;6.97;;
17151;SDS011;8691;50.828;4.700;2022-12-07T17:13:46;10.37;;;6.90;;
17151;SDS011;8691;50.828;4.700;2022-12-07T17:16:32;12.07;;;9.30;;
17151;SDS011;8691;50.828;4.700;2022-12-07T17:18:58;9.97;;;7.70;;
17151;SDS011;8691;50.828;4.700;2022-12-07T17:21:26;9.83;;;6.73;;
17151;SDS011;8691;50.828;4.700;2022-12-07T17:23:52;9.40;;;7.37;;
17151;SDS011;8691;50.828;4.700;2022-12-07T17:26:21;12.63;;;7.07;;
17151;SDS011;8691;50.828;4.700;2022-12-07T17:28:46;7.63;;;6.80;;
17151;SDS011;8691;50.828;4.700;2022-12-07T17:31:14;11.13;;;9.70;;
17151;SDS011;8691;50.828;4.700;2022-12-07T17:33:39;11.40;;;9.40;;